首页
METAR-TAF:

METAR-TAF

机场 :

莫比尔, 阿拉巴马州, 美国

纬度: 30-41-18N, 经度: 088-14-44W, 海拔: 66米

当前天气观测

该预报发布于13分钟前的20:27 UTC
风速3节,风向东转东北
温度 9°C
湿度 93%
气压 1018 hPa
能見度: 11.3公里
散云层高于400英尺
多云层高于6000英尺
阴天层高于9500英尺
小雨

METAR: KMOB 262027Z 07003KT 7SM -RA SCT004 BKN060 OVC095 09/08 A3005 RMK AO2 P0002 T00890083

时间: 14:40 (20:40 UTC)

预报

该预报发布于3小时和8分钟前的17:32 UTC
预报有效从26日的 18点(UTC)到 27日的 18点(UTC)
风速5节,风向东南
能見度: 9.7公里
散云层高于2200英尺
阴天层高于2900英尺
小阵雨
短暂存在
从 26日的 21点(UTC)到 26日的 24点(UTC)
能見度: 3.2公里
阴天层高于1500英尺
小阵雨
从 27日的 0000点(UTC)
风速7节,风向东转东南
能見度: 8.0公里
散云层高于500英尺
阴天层高于600英尺
轻雾
短暂存在
从 27日的 00点(UTC)到 27日的 03点(UTC)
能見度: 3.2公里
多云层高于500英尺
小阵雨
从 27日的 0600点(UTC)
风速5节,风向
能見度: 6.4公里
散云层高于300英尺
阴天层高于800英尺
小阵雨
从 27日的 1300点(UTC)
风速6节,风向
能見度: 6.4公里
多云层高于300英尺
轻雾

TAF: KMOB 261732Z 2618/2718 13005KT 6SM -SHRA SCT022 OVC029 TEMPO 2621/2624 2SM -SHRA OVC015 FM270000 11007KT 5SM BR SCT005 OVC006 TEMPO 2700/2703 2SM -SHRA BKN005 FM270600 08005KT 4SM -SHRA SCT003 OVC008 FM271300 36006KT 4SM BR BKN003

超过4000个机场的气象观测和天气预报(METAR&TAF报告)。

可查询的气象台以黄色和红色小点在地图上表示。

将鼠标移到小点上方,可查看气象台名称。

然后点击查看天气观测和预报。

如需切换地图:点击带黑十字的绿色按钮放大地图;点击带横线的绿色按钮缩小地图;或者点击绿色箭头查看邻近地区的地图。


METAR-TAF: